Time;durP1;ratioP1;P1;durP2;ratioP2;P2;SDS_P1;SDS_P2;PMS_P1;PMS_P2;Temp;Humidity;BMP_temperature;BMP_pressure;BME280_temperature;BME280_humidity;BME280_pressure;Samples;Min_cycle;Max_cycle;Signal;HPM_P1;HPM_P2
2021/04/05 00:00:21;;;;;;;126.83;74.33;;;25.30;69.00;;;;;;4131435;28;20042;-54
2021/04/05 00:02:23;;;;;;;100.28;61.88;;;25.30;69.30;;;;;;4125915;28;20133;-51
2021/04/05 00:04:26;;;;;;;81.20;50.50;;;25.30;69.30;;;;;;4130402;28;20106;-45
2021/04/05 00:06:31;;;;;;;76.65;45.65;;;25.40;69.50;;;;;;4133436;28;20453;-44
2021/04/05 00:08:33;;;;;;;66.45;41.05;;;25.40;69.50;;;;;;4129536;28;20475;-42
2021/04/05 00:10:48;;;;;;;57.67;38.60;;;25.40;69.30;;;;;;4130577;28;20038;-43
2021/04/05 00:12:52;;;;;;;44.05;28.33;;;25.40;69.30;;;;;;4131980;28;20049;-46
2021/04/05 00:14:54;;;;;;;41.95;25.40;;;25.40;69.50;;;;;;4131212;28;20049;-47
2021/04/05 00:16:56;;;;;;;30.40;21.70;;;25.40;69.70;;;;;;4125736;28;20476;-47
2021/04/05 00:18:58;;;;;;;30.70;19.77;;;25.50;69.80;;;;;;4127872;28;20100;-53
2021/04/05 00:21:10;;;;;;;30.98;19.33;;;25.50;69.80;;;;;;4124808;28;20406;-45
2021/04/05 00:23:13;;;;;;;29.58;18.88;;;25.50;69.70;;;;;;4134149;28;20108;-55
2021/04/05 00:25:15;;;;;;;30.60;17.67;;;25.50;69.60;;;;;;4122659;28;20050;-46
2021/04/05 00:27:17;;;;;;;21.27;15.10;;;25.60;69.60;;;;;;4123403;28;20415;-50
2021/04/05 00:29:19;;;;;;;27.55;14.68;;;25.50;69.50;;;;;;4129366;28;20311;-49
2021/04/05 00:31:21;;;;;;;21.48;12.98;;;25.60;69.70;;;;;;4126594;28;20524;-50
2021/04/05 00:33:23;;;;;;;19.40;11.25;;;25.60;69.70;;;;;;4132037;28;20092;-50
2021/04/05 00:35:28;;;;;;;21.13;9.90;;;25.60;69.70;;;;;;4128101;28;20025;-46
2021/04/05 00:37:30;;;;;;;16.23;10.07;;;25.60;69.60;;;;;;4132251;28;20034;-48
2021/04/05 00:39:32;;;;;;;15.10;9.00;;;25.70;69.50;;;;;;4128567;28;20059;-53
2021/04/05 00:41:35;;;;;;;16.42;9.18;;;25.70;69.50;;;;;;4133165;28;20058;-50
2021/04/05 00:43:38;;;;;;;16.00;8.40;;;25.70;69.50;;;;;;4127497;28;20048;-48
2021/04/05 00:45:41;;;;;;;13.13;8.85;;;25.70;69.50;;;;;;4131952;28;20867;-54
2021/04/05 00:47:54;;;;;;;13.68;8.27;;;25.80;69.50;;;;;;4132358;28;20026;-48
2021/04/05 00:49:56;;;;;;;12.40;6.85;;;25.70;69.40;;;;;;4130713;28;20056;-50
2021/04/05 00:51:58;;;;;;;12.00;7.22;;;25.80;69.30;;;;;;4132054;28;20074;-48
2021/04/05 00:54:00;;;;;;;16.42;7.05;;;25.80;69.30;;;;;;4127032;28;20029;-47
2021/04/05 00:56:03;;;;;;;11.10;6.55;;;25.80;69.40;;;;;;4129343;28;20060;-48
2021/04/05 00:58:06;;;;;;;16.65;6.93;;;25.80;69.40;;;;;;4130536;28;20466;-49
2021/04/05 01:00:17;;;;;;;10.57;6.33;;;25.80;69.40;;;;;;4130669;28;20223;-48
2021/04/05 01:02:19;;;;;;;8.95;6.43;;;25.80;69.30;;;;;;4135890;28;20096;-48
2021/04/05 01:04:21;;;;;;;10.35;6.18;;;25.80;69.20;;;;;;4130806;28;20057;-50
2021/04/05 01:06:28;;;;;;;8.77;6.07;;;25.80;69.20;;;;;;4134947;28;20674;-50
2021/04/05 01:08:30;;;;;;;7.40;5.47;;;25.80;69.10;;;;;;4125907;28;20029;-54
2021/04/05 01:10:32;;;;;;;10.48;6.03;;;25.80;69.00;;;;;;4131974;28;20030;-51
2021/04/05 01:12:35;;;;;;;12.60;5.60;;;25.80;69.10;;;;;;4131039;28;20082;-44
2021/04/05 01:14:37;;;;;;;8.93;5.88;;;25.80;69.20;;;;;;4132687;28;20081;-46
2021/04/05 01:16:39;;;;;;;9.20;5.45;;;25.90;69.20;;;;;;4132793;28;20030;-56
2021/04/05 01:18:41;;;;;;;7.53;5.53;;;25.90;69.20;;;;;;4132902;28;20046;-48
2021/04/05 01:20:45;;;;;;;8.57;5.40;;;25.90;69.20;;;;;;4134356;28;20034;-49
2021/04/05 01:22:49;;;;;;;8.05;5.00;;;26.00;69.30;;;;;;4131904;28;20045;-46
2021/04/05 01:24:51;;;;;;;8.05;4.93;;;26.00;69.20;;;;;;4130970;28;20132;-50
2021/04/05 01:26:53;;;;;;;7.10;5.07;;;26.00;69.10;;;;;;4133851;28;20476;-45
2021/04/05 01:28:55;;;;;;;7.78;4.88;;;26.00;69.00;;;;;;4123329;28;20030;-45
2021/04/05 01:31:00;;;;;;;7.40;5.15;;;26.00;68.90;;;;;;4130755;28;20571;-51
2021/04/05 01:33:07;;;;;;;9.98;5.15;;;26.00;68.90;;;;;;4131378;28;20345;-50
2021/04/05 01:35:09;;;;;;;8.07;4.57;;;26.00;68.80;;;;;;4131707;28;20146;-58
2021/04/05 01:37:11;;;;;;;8.80;5.15;;;26.00;68.70;;;;;;4132218;28;20537;-49
2021/04/05 01:39:14;;;;;;;6.53;4.57;;;26.10;68.70;;;;;;4130675;28;20085;-53
2021/04/05 01:41:26;;;;;;;8.52;4.57;;;26.10;68.70;;;;;;4131375;28;20477;-52
2021/04/05 01:43:28;;;;;;;8.80;4.90;;;26.10;68.60;;;;;;4129092;28;20068;-49
2021/04/05 01:45:31;;;;;;;5.82;4.50;;;26.10;68.70;;;;;;4127381;28;20137;-45
2021/04/05 01:47:34;;;;;;;6.78;4.50;;;26.20;68.60;;;;;;4130277;28;20030;-54
2021/04/05 01:49:39;;;;;;;6.18;4.40;;;26.20;69.20;;;;;;4130302;28;20523;-52
2021/04/05 01:51:41;;;;;;;6.03;4.22;;;26.20;68.40;;;;;;4129916;28;20042;-49
2021/04/05 01:53:44;;;;;;;9.25;4.95;;;26.20;68.30;;;;;;4133697;28;20033;-58
2021/04/05 01:55:47;;;;;;;8.10;4.47;;;26.30;68.50;;;;;;4131821;28;20734;-55
2021/04/05 01:57:50;;;;;;;6.97;4.78;;;26.30;68.20;;;;;;4137525;28;20046;-55
2021/04/05 01:59:52;;;;;;;7.10;4.95;;;26.30;68.80;;;;;;4139845;28;20022;-58
2021/04/05 02:01:54;;;;;;;8.65;4.40;;;26.30;68.00;;;;;;4140871;28;20534;-65
2021/04/05 02:03:57;;;;;;;8.05;4.93;;;26.30;67.80;;;;;;4131743;28;20030;-57
2021/04/05 02:06:03;;;;;;;;;;;26.30;68.00;;;;;;4137629;28;20100;-57
2021/04/05 02:08:07;;;;;;;7.65;4.78;;;26.30;68.00;;;;;;4126763;28;19918;-51
2021/04/05 02:10:17;;;;;;;8.23;4.47;;;26.40;68.20;;;;;;4131345;28;20102;-50
2021/04/05 02:12:19;;;;;;;9.82;4.28;;;26.40;68.30;;;;;;4127403;28;20038;-54
2021/04/05 02:14:21;;;;;;;9.00;4.90;;;26.40;68.30;;;;;;4128188;28;20113;-45
2021/04/05 02:16:25;;;;;;;8.95;4.75;;;26.40;68.50;;;;;;4129807;28;20292;-50
2021/04/05 02:18:29;;;;;;;12.18;4.63;;;26.40;69.20;;;;;;4131123;28;20049;-46
2021/04/05 02:20:31;;;;;;;11.45;4.45;;;26.50;68.50;;;;;;4134185;28;20168;-49
2021/04/05 02:22:34;;;;;;;8.73;4.22;;;26.60;68.70;;;;;;4128555;28;20558;-46
2021/04/05 02:24:37;;;;;;;11.15;3.78;;;26.60;68.90;;;;;;4133268;28;20855;-45
2021/04/05 02:26:40;;;;;;;10.68;4.65;;;26.70;69.00;;;;;;4129187;28;20034;-49
2021/04/05 02:28:45;;;;;;;;;;;26.70;69.10;;;;;;4126603;28;20081;-47
2021/04/05 02:30:47;;;;;;;10.75;4.10;;;26.80;69.10;;;;;;4132335;28;19924;-53
2021/04/05 02:33:02;;;;;;;6.35;4.40;;;26.90;69.20;;;;;;4131643;28;20452;-45
2021/04/05 02:35:05;;;;;;;6.18;4.32;;;26.90;69.10;;;;;;4126644;28;20099;-48
2021/04/05 02:37:07;;;;;;;6.25;4.30;;;27.00;69.30;;;;;;4132228;28;20046;-49
2021/04/05 02:39:11;;;;;;;8.40;4.40;;;27.00;68.80;;;;;;4132047;28;20066;-44
2021/04/05 02:41:15;;;;;;;7.20;4.60;;;27.10;68.80;;;;;;4130488;28;20306;-48
2021/04/05 02:43:18;;;;;;;8.18;4.50;;;27.10;68.80;;;;;;4127915;28;20030;-55
2021/04/05 02:45:22;;;;;;;7.70;4.40;;;27.10;69.00;;;;;;4133461;28;20341;-49
2021/04/05 02:47:25;;;;;;;6.85;4.40;;;27.10;69.00;;;;;;4131974;28;20034;-48
2021/04/05 02:49:27;;;;;;;10.73;4.47;;;27.10;68.80;;;;;;4129899;28;20042;-48
2021/04/05 02:51:30;;;;;;;6.47;3.83;;;27.20;68.60;;;;;;4132900;28;20041;-52
2021/04/05 02:53:32;;;;;;;7.13;4.15;;;27.20;68.40;;;;;;4132642;28;20022;-48
2021/04/05 02:55:36;;;;;;;7.07;4.47;;;27.20;69.10;;;;;;4120575;28;20069;-49
2021/04/05 02:57:40;;;;;;;10.05;4.82;;;27.20;69.50;;;;;;4130465;28;20529;-52
2021/04/05 02:59:42;;;;;;;9.75;3.83;;;27.20;70.00;;;;;;4134874;28;20034;-50
2021/04/05 03:01:45;;;;;;;6.73;4.10;;;27.30;70.10;;;;;;4129187;28;20140;-47
2021/04/05 03:03:48;;;;;;;8.50;4.38;;;27.40;70.50;;;;;;4134453;28;20061;-50
2021/04/05 03:05:49;;;;;;;;;;;27.40;70.70;;;;;;4134735;28;20053;-44
2021/04/05 03:07:52;;;;;;;6.00;4.10;;;27.40;70.60;;;;;;4135900;28;20000;-45
2021/04/05 03:09:55;;;;;;;9.88;4.13;;;27.40;70.50;;;;;;4133345;28;20034;-46
2021/04/05 03:11:59;;;;;;;8.40;4.37;;;27.50;70.70;;;;;;4133040;28;20093;-51
2021/04/05 03:14:08;;;;;;;7.40;4.10;;;27.50;70.70;;;;;;4130837;28;20025;-46
2021/04/05 03:16:22;;;;;;;8.30;4.15;;;27.60;71.00;;;;;;4133726;28;20077;-48
2021/04/05 03:18:26;;;;;;;9.07;4.38;;;27.60;70.00;;;;;;4132370;28;20061;-49
2021/04/05 03:20:31;;;;;;;7.50;4.28;;;27.50;70.30;;;;;;4135101;28;20116;-51
2021/04/05 03:22:36;;;;;;;8.15;4.03;;;27.50;70.40;;;;;;4129494;28;20069;-50
2021/04/05 03:24:39;;;;;;;7.07;4.10;;;27.50;70.40;;;;;;4133443;28;20053;-47
2021/04/05 03:26:41;;;;;;;10.00;3.92;;;27.50;70.40;;;;;;4127001;28;20037;-48
2021/04/05 03:28:44;;;;;;;6.72;4.03;;;27.50;70.50;;;;;;4130916;28;20046;-48
2021/04/05 03:30:59;;;;;;;9.13;4.25;;;27.50;70.50;;;;;;4126667;28;20061;-49
2021/04/05 03:33:42;;;;;;;12.18;3.95;;;27.60;70.50;;;;;;4124890;28;20854;-49
2021/04/05 03:35:48;;;;;;;4.80;3.83;;;27.50;70.40;;;;;;4121147;28;20380;-47
2021/04/05 03:37:50;;;;;;;5.43;3.72;;;27.50;70.30;;;;;;4121642;28;20045;-51
2021/04/05 03:39:52;;;;;;;6.03;3.75;;;27.60;70.40;;;;;;4123490;28;20096;-48
2021/04/05 03:42:05;;;;;;;4.82;3.50;;;27.60;70.40;;;;;;4126069;28;20042;-47
2021/04/05 03:44:26;;;;;;;5.80;3.80;;;27.70;70.60;;;;;;4129900;28;20034;-47
2021/04/05 03:46:33;;;;;;;5.32;3.97;;;27.70;70.60;;;;;;4128433;28;20099;-50
2021/04/05 03:48:53;;;;;;;5.10;3.67;;;27.70;70.40;;;;;;4130920;28;20072;-46
2021/04/05 03:51:38;;;;;;;4.50;3.10;;;27.80;70.40;;;;;;4124834;28;20044;-45
2021/04/05 03:54:04;;;;;;;6.80;3.70;;;27.80;70.10;;;;;;4124310;28;20042;-48
2021/04/05 03:56:18;;;;;;;6.97;3.33;;;27.90;70.00;;;;;;4128003;28;20037;-51
2021/04/05 03:58:22;;;;;;;5.18;3.42;;;27.90;69.90;;;;;;4111721;28;20125;-57
2021/04/05 04:00:28;;;;;;;4.78;3.35;;;28.00;69.90;;;;;;4129282;28;20484;-54
2021/04/05 04:02:44;;;;;;;5.95;3.47;;;28.00;69.70;;;;;;4117438;28;20046;-54
2021/04/05 04:05:03;;;;;;;4.13;2.90;;;28.10;69.50;;;;;;4127246;28;20053;-57
2021/04/05 04:09:10;;;;;;;5.13;3.42;;;28.20;69.10;;;;;;4128227;28;20495;-53
2021/04/05 04:11:18;;;;;;;3.88;3.00;;;28.30;68.90;;;;;;4127385;28;20056;-45
2021/04/05 04:13:22;;;;;;;4.88;3.45;;;28.40;68.80;;;;;;4129338;28;20034;-49
2021/04/05 04:15:25;;;;;;;8.13;3.33;;;28.40;68.70;;;;;;4127826;28;20037;-53
2021/04/05 04:17:30;;;;;;;6.93;2.90;;;28.50;68.60;;;;;;4131235;28;20041;-56
2021/04/05 04:19:34;;;;;;;3.53;3.10;;;28.50;68.40;;;;;;4131283;28;20062;-52
2021/04/05 04:21:39;;;;;;;4.20;2.92;;;28.60;68.30;;;;;;4133702;28;20483;-49
2021/04/05 04:23:42;;;;;;;8.18;3.47;;;28.70;68.00;;;;;;4133173;28;20022;-54
2021/04/05 04:25:44;;;;;;;4.45;2.97;;;28.80;67.80;;;;;;4134986;28;20060;-51
2021/04/05 04:27:47;;;;;;;5.30;3.40;;;28.80;67.70;;;;;;4131229;28;20034;-49
2021/04/05 04:29:53;;;;;;;4.75;2.90;;;28.90;67.50;;;;;;4133696;28;20040;-54
2021/04/05 04:31:56;;;;;;;4.10;2.85;;;28.90;67.30;;;;;;4132578;28;20569;-52
2021/04/05 04:33:58;;;;;;;;;;;29.00;67.20;;;;;;4132213;28;20424;-52
2021/04/05 04:36:07;;;;;;;4.40;3.20;;;29.10;67.10;;;;;;4133354;28;19913;-52
2021/04/05 04:38:09;;;;;;;4.32;3.10;;;29.10;66.90;;;;;;4129048;28;20033;-51
2021/04/05 04:40:11;;;;;;;5.00;2.80;;;29.20;66.70;;;;;;4133971;28;20176;-54
2021/04/05 04:42:14;;;;;;;6.45;3.08;;;29.20;66.50;;;;;;4131831;28;20049;-51
2021/04/05 04:44:16;;;;;;;3.90;2.95;;;29.30;66.40;;;;;;4132867;28;20074;-55
2021/04/05 04:46:18;;;;;;;5.80;2.92;;;29.30;66.30;;;;;;4129706;28;20144;-51
2021/04/05 04:48:20;;;;;;;7.22;3.17;;;29.30;66.40;;;;;;4132122;28;20092;-60
2021/04/05 04:50:27;;;;;;;4.20;3.10;;;29.30;66.40;;;;;;4133683;28;20027;-47
2021/04/05 04:52:29;;;;;;;3.83;2.90;;;29.30;66.50;;;;;;4133034;28;20099;-49
2021/04/05 04:54:31;;;;;;;5.03;3.13;;;29.30;66.50;;;;;;4130108;28;20057;-52
2021/04/05 04:56:34;;;;;;;4.60;3.30;;;29.30;66.50;;;;;;4135236;28;20388;-50
2021/04/05 04:58:36;;;;;;;5.18;3.25;;;29.30;66.40;;;;;;4131971;28;20037;-49
2021/04/05 05:00:38;;;;;;;4.77;3.47;;;29.30;66.00;;;;;;4133434;28;20042;-47
2021/04/05 05:02:42;;;;;;;4.53;3.60;;;29.30;64.80;;;;;;4132684;28;20088;-50
2021/04/05 05:04:46;;;;;;;5.95;3.70;;;29.30;64.30;;;;;;4135683;28;20591;-49
2021/04/05 05:06:52;;;;;;;6.05;3.80;;;29.30;63.90;;;;;;4130612;28;20048;-46
2021/04/05 05:08:55;;;;;;;4.55;3.58;;;29.30;63.80;;;;;;4130751;28;20038;-46
2021/04/05 05:10:58;;;;;;;4.22;3.50;;;29.30;63.60;;;;;;4133841;28;20117;-47
2021/04/05 05:13:00;;;;;;;5.40;4.10;;;29.30;63.10;;;;;;4132600;28;20053;-45
2021/04/05 05:15:02;;;;;;;7.00;4.00;;;29.30;63.10;;;;;;4128888;28;20201;-52
2021/04/05 05:17:07;;;;;;;5.20;3.60;;;29.30;63.00;;;;;;4136086;28;20029;-48
2021/04/05 05:19:09;;;;;;;4.30;3.53;;;29.30;62.90;;;;;;4131405;28;20543;-46
2021/04/05 05:21:37;;;;;;;5.57;3.53;;;29.40;62.90;;;;;;4132545;28;20041;-49
2021/04/05 05:23:41;;;;;;;7.50;4.18;;;29.40;63.20;;;;;;4133522;28;20029;-53
2021/04/05 05:25:47;;;;;;;5.82;4.07;;;29.40;63.50;;;;;;4128589;28;20929;-51
2021/04/05 05:28:04;;;;;;;5.03;3.72;;;29.40;63.60;;;;;;4131406;28;20041;-53
2021/04/05 05:30:20;;;;;;;5.75;3.60;;;29.50;63.80;;;;;;4130609;28;20133;-53
2021/04/05 05:32:23;;;;;;;8.18;3.72;;;29.50;63.70;;;;;;4132432;28;20424;-50
2021/04/05 05:34:25;;;;;;;6.25;3.60;;;29.60;64.50;;;;;;4128663;28;20038;-55
2021/04/05 05:36:30;;;;;;;4.60;3.50;;;29.60;64.00;;;;;;4131809;28;20049;-50
2021/04/05 05:38:33;;;;;;;5.57;3.47;;;29.60;64.10;;;;;;4130445;28;20022;-52
2021/04/05 05:40:36;;;;;;;7.32;3.47;;;29.60;64.10;;;;;;4131232;28;20042;-58
2021/04/05 05:43:01;;;;;;;5.85;3.60;;;29.60;64.20;;;;;;4129260;28;20038;-54
2021/04/05 05:45:05;;;;;;;6.93;3.50;;;29.70;64.20;;;;;;4131367;28;20033;-50
2021/04/05 05:47:22;;;;;;;4.82;3.40;;;29.70;64.20;;;;;;4130836;28;20033;-54
2021/04/05 05:49:37;;;;;;;4.40;3.20;;;29.70;64.30;;;;;;4127232;28;20121;-49
2021/04/05 05:52:00;;;;;;;6.10;3.53;;;29.60;64.40;;;;;;4129462;28;20041;-47
2021/04/05 05:54:24;;;;;;;9.18;3.30;;;29.60;64.60;;;;;;4130288;28;20029;-52
2021/04/05 05:56:40;;;;;;;;;;;29.50;64.70;;;;;;4128211;28;20433;-57
2021/04/05 05:58:45;;;;;;;4.80;3.45;;;29.50;64.70;;;;;;4130245;28;20394;-53
2021/04/05 06:01:18;;;;;;;4.95;3.00;;;29.60;64.70;;;;;;4132501;28;20045;-52
2021/04/05 06:03:38;;;;;;;5.85;3.33;;;29.60;64.70;;;;;;4129182;28;20622;-48
2021/04/05 06:06:14;;;;;;;4.70;3.03;;;29.60;64.50;;;;;;4133046;28;20068;-53
2021/04/05 06:08:28;;;;;;;3.38;3.08;;;29.70;64.50;;;;;;4098696;28;20038;-54
2021/04/05 06:11:06;;;;;;;4.53;3.28;;;29.70;64.40;;;;;;4129879;28;20508;-53
2021/04/05 06:13:12;;;;;;;5.13;2.95;;;29.70;64.30;;;;;;4131068;28;20419;-55
2021/04/05 06:15:14;;;;;;;5.28;3.20;;;29.80;64.40;;;;;;4132801;28;20442;-52
2021/04/05 06:18:09;;;;;;;4.85;3.65;;;29.80;64.40;;;;;;4131249;28;20026;-52
2021/04/05 06:20:20;;;;;;;4.93;3.30;;;29.90;64.40;;;;;;4088013;28;20507;-55
2021/04/05 06:22:48;;;;;;;6.05;3.17;;;29.90;64.30;;;;;;4129850;28;20054;-56
2021/04/05 06:25:03;;;;;;;4.55;3.42;;;29.90;64.40;;;;;;4133801;28;20056;-56
2021/04/05 06:27:17;;;;;;;6.80;3.45;;;30.00;64.40;;;;;;4134066;28;20033;-48
2021/04/05 06:29:49;;;;;;;4.47;3.38;;;30.00;64.40;;;;;;4129951;28;20384;-51
2021/04/05 06:32:33;;;;;;;5.28;3.50;;;30.00;64.40;;;;;;4133312;28;20439;-45
2021/04/05 06:34:35;;;;;;;;;;;30.00;64.40;;;;;;4132236;28;20034;-43
2021/04/05 06:37:05;;;;;;;6.30;3.30;;;30.10;64.50;;;;;;4130590;28;19917;-53
2021/04/05 06:39:21;;;;;;;4.40;3.50;;;30.00;64.40;;;;;;4120656;28;20056;-53
2021/04/05 06:41:41;;;;;;;4.38;3.22;;;30.00;64.40;;;;;;4139873;28;20088;-51
2021/04/05 06:44:11;;;;;;;5.97;3.42;;;30.10;64.40;;;;;;4137148;28;20180;-48
2021/04/05 06:46:43;;;;;;;11.60;3.45;;;30.00;64.50;;;;;;4135895;28;20080;-47
2021/04/05 06:49:13;;;;;;;4.00;3.35;;;30.10;64.60;;;;;;4137615;28;20037;-52
2021/04/05 06:51:33;;;;;;;8.27;3.60;;;30.10;64.60;;;;;;4121201;28;20108;-50
2021/04/05 06:53:53;;;;;;;5.88;3.50;;;30.00;62.70;;;;;;4125991;28;20044;-48
2021/04/05 06:56:02;;;;;;;3.67;3.20;;;29.90;59.70;;;;;;4124356;28;20048;-53
2021/04/05 06:58:19;;;;;;;3.50;3.17;;;29.70;57.90;;;;;;4128143;28;20033;-53
2021/04/05 07:00:36;;;;;;;4.47;3.13;;;29.40;55.60;;;;;;4124815;28;20177;-53
2021/04/05 07:03:05;;;;;;;4.63;3.40;;;29.20;55.20;;;;;;4128110;28;20483;-52
2021/04/05 07:05:40;;;;;;;4.53;2.90;;;28.90;53.80;;;;;;4129418;28;20387;-46
2021/04/05 07:07:46;;;;;;;3.35;2.88;;;28.70;52.70;;;;;;4126058;28;20095;-47
2021/04/05 07:10:07;;;;;;;4.72;2.88;;;28.50;52.90;;;;;;4128252;28;20121;-49
2021/04/05 07:12:28;;;;;;;4.18;2.90;;;28.30;53.60;;;;;;4130864;28;20037;-52
2021/04/05 07:15:08;;;;;;;5.05;3.10;;;28.10;53.70;;;;;;4125540;28;20234;-51
2021/04/05 07:17:48;;;;;;;4.88;2.95;;;27.90;53.40;;;;;;4123277;28;20096;-54
2021/04/05 07:20:25;;;;;;;5.00;3.08;;;27.70;53.00;;;;;;4125018;28;20049;-50
2021/04/05 07:23:04;;;;;;;5.15;2.92;;;27.50;53.00;;;;;;4115545;28;20045;-52
2021/04/05 07:25:18;;;;;;;4.38;3.00;;;27.30;52.90;;;;;;4129678;28;20127;-54
2021/04/05 07:27:26;;;;;;;3.10;2.50;;;27.10;52.00;;;;;;4128269;28;20033;-51
2021/04/05 07:29:54;;;;;;;3.22;2.70;;;27.00;51.90;;;;;;4128248;28;20113;-46
2021/04/05 07:32:50;;;;;;;3.80;2.72;;;26.90;51.80;;;;;;4123011;28;20641;-46
2021/04/05 07:34:58;;;;;;;4.40;2.72;;;26.70;52.10;;;;;;4106438;28;20152;-47
2021/04/05 07:37:33;;;;;;;3.05;2.72;;;26.60;52.10;;;;;;4121737;28;20053;-45
2021/04/05 07:40:07;;;;;;;3.28;2.70;;;26.40;52.60;;;;;;4127329;28;20056;-50
2021/04/05 07:42:21;;;;;;;2.85;2.53;;;26.30;52.30;;;;;;4127039;28;20042;-46
2021/04/05 07:44:30;;;;;;;3.97;2.72;;;26.20;52.10;;;;;;4121192;28;20211;-46
2021/04/05 07:46:44;;;;;;;3.47;2.55;;;26.00;52.30;;;;;;4125502;28;20492;-47
2021/04/05 07:48:53;;;;;;;2.97;2.35;;;;;;;;;;4128078;28;20049;-49
2021/04/05 07:50:57;;;;;;;4.13;2.50;;;;;;;;;;4129007;28;20155;-52
2021/04/05 07:53:00;;;;;;;3.15;2.38;;;;;;;;;;4129424;28;20041;-52
2021/04/05 07:55:05;;;;;;;2.85;2.33;;;25.90;51.30;;;;;;4132336;28;20443;-48
2021/04/05 07:57:14;;;;;;;3.53;2.67;;;25.90;55.80;;;;;;4124371;28;20038;-50
2021/04/05 07:59:42;;;;;;;3.17;2.40;;;25.90;55.80;;;;;;4130529;28;20531;-48
2021/04/05 08:02:09;;;;;;;4.25;2.83;;;26.00;56.20;;;;;;4126631;28;20054;-50
2021/04/05 08:04:30;;;;;;;3.25;2.55;;;26.00;56.70;;;;;;4122600;28;20878;-54
2021/04/05 08:06:55;;;;;;;3.83;2.50;;;26.10;57.30;;;;;;4110144;28;20175;-50
2021/04/05 08:09:03;;;;;;;4.05;2.40;;;26.20;57.60;;;;;;4123738;28;20539;-46
2021/04/05 08:11:10;;;;;;;3.20;2.42;;;26.20;58.00;;;;;;4125229;28;20113;-53
2021/04/05 08:13:31;;;;;;;3.15;2.35;;;26.30;58.60;;;;;;4128209;28;20718;-46
2021/04/05 08:15:58;;;;;;;3.30;2.63;;;26.30;58.80;;;;;;4129927;28;20224;-44
2021/04/05 08:18:13;;;;;;;3.10;2.30;;;26.30;59.10;;;;;;4101527;28;20459;-46
2021/04/05 08:20:30;;;;;;;5.38;2.65;;;26.40;59.60;;;;;;4131932;28;20113;-54
2021/04/05 08:23:08;;;;;;;3.13;2.40;;;26.40;59.90;;;;;;4125499;28;20707;-52
2021/04/05 08:25:32;;;;;;;4.05;2.50;;;26.50;60.10;;;;;;4128870;28;20053;-45
2021/04/05 08:27:52;;;;;;;3.90;2.30;;;26.60;60.50;;;;;;4125042;28;20044;-52
2021/04/05 08:30:31;;;;;;;2.97;2.47;;;26.60;60.30;;;;;;4134289;28;20136;-50
2021/04/05 08:32:54;;;;;;;5.45;2.60;;;26.60;60.20;;;;;;4133257;28;20502;-50
2021/04/05 08:35:05;;;;;;;3.90;2.70;;;26.70;60.30;;;;;;4127207;28;20505;-45
2021/04/05 08:37:14;;;;;;;3.38;2.53;;;26.70;60.20;;;;;;4133507;28;20038;-46
2021/04/05 08:39:41;;;;;;;3.25;2.60;;;26.70;60.30;;;;;;4124971;28;20049;-47
2021/04/05 08:42:07;;;;;;;4.43;2.60;;;26.70;60.30;;;;;;4127345;28;20344;-49
2021/04/05 08:44:14;;;;;;;3.35;2.45;;;26.80;60.30;;;;;;4129991;28;20049;-47
2021/04/05 08:46:21;;;;;;;3.40;2.67;;;26.80;60.40;;;;;;4126489;28;20049;-51
2021/04/05 08:48:27;;;;;;;3.10;2.38;;;26.80;60.40;;;;;;4118009;28;20050;-52
2021/04/05 08:50:33;;;;;;;4.20;2.67;;;26.80;60.50;;;;;;4133864;28;20510;-49
2021/04/05 08:52:56;;;;;;;5.93;2.47;;;26.80;60.50;;;;;;4128408;28;20057;-48
2021/04/05 08:55:00;;;;;;;5.95;2.40;;;26.80;60.80;;;;;;4128173;28;20463;-48
2021/04/05 08:57:08;;;;;;;3.47;2.65;;;26.80;61.40;;;;;;4133163;28;20030;-47
2021/04/05 08:59:21;;;;;;;7.20;2.75;;;26.80;61.60;;;;;;4132035;28;20433;-42
2021/04/05 09:01:40;;;;;;;5.07;2.80;;;26.90;62.00;;;;;;4132192;28;20132;-42
2021/04/05 09:03:46;;;;;;;5.47;2.90;;;26.90;62.80;;;;;;4131275;28;20038;-44
2021/04/05 09:05:50;;;;;;;3.25;2.45;;;26.90;62.40;;;;;;4132720;28;20105;-44
2021/04/05 09:11:15;;;;;;;7.82;3.10;;;27.00;62.80;;;;;;4127114;28;20168;-43
2021/04/05 09:13:24;;;;;;;4.35;2.22;;;26.90;62.90;;;;;;4128410;28;20126;-44
2021/04/05 09:15:31;;;;;;;8.50;2.80;;;27.00;63.20;;;;;;4131848;28;20224;-42
2021/04/05 09:18:10;;;;;;;16.20;2.95;;;27.00;63.30;;;;;;4131392;28;21719;-45
2021/04/05 09:20:34;;;;;;;9.20;2.92;;;27.00;63.50;;;;;;4126037;28;20030;-43
2021/04/05 09:22:49;;;;;;;10.32;3.10;;;27.00;63.60;;;;;;4126564;28;20038;-50
2021/04/05 09:25:00;;;;;;;7.30;3.38;;;27.10;63.80;;;;;;4123945;28;20057;-46
2021/04/05 09:27:05;;;;;;;7.00;2.65;;;27.10;63.90;;;;;;4122871;28;20595;-47
2021/04/05 09:29:10;;;;;;;6.53;2.40;;;27.10;63.90;;;;;;4126592;28;20061;-47
2021/04/05 09:31:54;;;;;;;7.05;2.88;;;27.10;64.00;;;;;;4125432;28;20121;-47
2021/04/05 09:34:14;;;;;;;7.95;2.70;;;27.10;64.00;;;;;;4078805;28;20036;-43
2021/04/05 09:36:16;;;;;;;6.15;2.58;;;27.10;64.20;;;;;;4117007;28;20156;-46
2021/04/05 09:38:45;;;;;;;8.55;2.75;;;27.20;64.40;;;;;;4126263;28;20025;-42
2021/04/05 09:41:05;;;;;;;7.20;2.92;;;27.20;64.50;;;;;;4130392;28;20184;-50
2021/04/05 09:43:25;;;;;;;7.40;2.88;;;27.20;64.70;;;;;;4129563;28;20030;-49
2021/04/05 09:46:03;;;;;;;6.43;2.78;;;27.20;65.00;;;;;;4131311;28;20057;-42
2021/04/05 09:48:41;;;;;;;7.72;2.60;;;27.20;65.10;;;;;;4128760;28;20031;-45
2021/04/05 09:51:14;;;;;;;8.48;2.88;;;27.20;65.00;;;;;;4128248;28;20029;-45
2021/04/05 09:53:29;;;;;;;5.80;2.80;;;27.20;65.40;;;;;;4116121;28;20474;-48
2021/04/05 09:55:49;;;;;;;8.40;3.25;;;27.20;65.60;;;;;;4124098;28;20440;-45
2021/04/05 09:57:54;;;;;;;5.70;2.35;;;27.30;65.70;;;;;;4129841;28;20034;-46
2021/04/05 09:59:59;;;;;;;6.68;2.40;;;27.20;65.50;;;;;;4127452;28;20037;-49
2021/04/05 10:02:02;;;;;;;8.60;2.90;;;27.20;65.40;;;;;;4131054;28;20495;-46
2021/04/05 10:04:14;;;;;;;9.15;3.10;;;27.30;65.50;;;;;;4124115;28;20050;-45
2021/04/05 10:06:19;;;;;;;4.80;2.53;;;27.30;66.20;;;;;;4129736;28;20092;-53
2021/04/05 10:08:30;;;;;;;6.32;2.80;;;27.30;65.50;;;;;;4129881;28;20072;-47
2021/04/05 10:10:36;;;;;;;6.05;2.85;;;27.30;65.50;;;;;;4124141;28;20416;-46
2021/04/05 10:12:40;;;;;;;5.30;3.10;;;27.30;65.50;;;;;;4126428;28;20042;-46
2021/04/05 10:14:45;;;;;;;6.68;3.05;;;27.30;65.70;;;;;;4129601;28;20125;-46
2021/04/05 10:16:52;;;;;;;6.50;2.55;;;27.30;65.70;;;;;;4124082;28;20042;-46
2021/04/05 10:19:05;;;;;;;5.63;2.92;;;27.30;65.50;;;;;;4126974;28;20037;-45
2021/04/05 10:21:08;;;;;;;5.25;2.80;;;27.30;65.60;;;;;;4123023;28;20042;-52
2021/04/05 10:23:10;;;;;;;;;;;27.30;65.50;;;;;;4130968;28;20068;-50
2021/04/05 10:25:21;;;;;;;6.45;2.95;;;27.30;65.40;;;;;;4124719;28;20164;-49
2021/04/05 10:27:26;;;;;;;4.95;2.97;;;27.30;65.50;;;;;;4123816;28;20077;-48
2021/04/05 10:29:35;;;;;;;4.82;2.65;;;27.30;65.60;;;;;;4130867;28;20058;-50
2021/04/05 10:31:38;;;;;;;6.57;3.00;;;27.30;65.50;;;;;;4127504;28;20034;-47
2021/04/05 10:33:50;;;;;;;6.18;2.65;;;27.30;65.30;;;;;;4125049;28;20038;-48
2021/04/05 10:35:57;;;;;;;6.10;2.78;;;27.30;65.20;;;;;;4124607;28;20026;-49
2021/04/05 10:38:06;;;;;;;6.47;3.03;;;27.30;65.20;;;;;;4129628;28;20398;-47
2021/04/05 10:40:17;;;;;;;4.70;2.90;;;27.30;65.30;;;;;;4125232;28;20042;-47
2021/04/05 10:42:26;;;;;;;6.45;2.97;;;27.30;65.20;;;;;;4131083;28;20037;-45
2021/04/05 10:44:32;;;;;;;6.15;3.25;;;27.30;65.20;;;;;;4119187;28;20026;-50
2021/04/05 10:46:41;;;;;;;5.20;3.13;;;27.30;65.20;;;;;;4129397;28;20057;-47
2021/04/05 10:51:45;;;;;;;6.82;3.20;;;27.40;65.10;;;;;;4128622;28;20048;-46
2021/04/05 10:53:58;;;;;;;6.00;3.42;;;27.30;65.00;;;;;;4126931;28;20112;-47
2021/04/05 10:56:52;;;;;;;7.88;3.53;;;27.30;65.00;;;;;;4132093;28;20034;-47
2021/04/05 10:59:09;;;;;;;6.53;3.50;;;27.30;65.00;;;;;;4122696;28;20038;-50
2021/04/05 11:01:13;;;;;;;4.85;2.83;;;27.30;65.20;;;;;;4120937;28;20034;-50
2021/04/05 11:03:26;;;;;;;9.07;3.38;;;27.30;65.00;;;;;;4129759;28;20475;-51
2021/04/05 11:05:34;;;;;;;10.48;3.10;;;27.30;65.10;;;;;;4130111;28;20297;-44
2021/04/05 11:07:38;;;;;;;9.30;3.55;;;27.30;65.20;;;;;;4128642;28;20034;-48
2021/04/05 11:09:44;;;;;;;10.05;3.40;;;27.30;65.20;;;;;;4125542;28;20042;-50
2021/04/05 11:11:51;;;;;;;8.95;3.50;;;27.30;65.30;;;;;;4134834;28;20037;-47
2021/04/05 11:13:57;;;;;;;11.10;3.58;;;27.30;65.30;;;;;;4132110;28;20045;-45
2021/04/05 11:16:00;;;;;;;15.70;4.32;;;27.30;65.00;;;;;;4138386;28;20065;-49
2021/04/05 11:18:04;;;;;;;;;;;27.20;65.00;;;;;;4136133;28;20094;-51
2021/04/05 11:20:06;;;;;;;;;;;27.30;65.20;;;;;;4138687;28;19999;-49
2021/04/05 11:22:18;;;;;;;8.65;3.08;;;27.20;65.10;;;;;;4134240;28;20584;-45
2021/04/05 11:24:31;;;;;;;6.53;3.70;;;27.20;65.00;;;;;;4131660;28;20511;-46
2021/04/05 11:26:35;;;;;;;9.05;3.25;;;27.30;65.10;;;;;;4130646;28;20038;-50
2021/04/05 11:28:41;;;;;;;6.15;3.38;;;27.20;65.10;;;;;;4129468;28;20503;-48